Terminal Aerodrome Forecast
Issued by NWS Wichita, KS

Home | Current Version | Previous Version | Text Only | Print | Product List | Glossary On
Versions: 1 2 3 4 5 6 7 8 9 10 11 12 13 14 15 16 17 18 19 20 21 22
000
FTUS43 KICT 201456 AAC
TAFICT
TAF AMD
KICT 201456Z 2015/2112 35014KT P6SM OVC009
     FM201600 36013KT P6SM OVC012
     FM201900 36013KT P6SM OVC018=

USA.gov is the U.S. government's official web portal to all federal, state and local government web resources and services.